PROFILE

 METAR AND TAF INFORMATION
ADDS - METARS form results

(0356 UTC 25 April 2019)
http://aviationweather.gov/metar/data/
 
MHTG 250300Z 00000KT 9999 BKN030 SCT250 23/14 Q1017 A3003 NOSIG
TAF MHTG 242225Z 2500/2524 15003KT 8000 FEW028 TX30/2521Z TN15/2512Z BECMG 2509/2511 VRB02KT 2000 FU SCT026 BECMG 2515/2517 17003KT 4000 FU 

 AIRPORT MAP

 RUNWAY INFORMATION
Runway 02 Runway length 6112 ft Runway width 148 ft
Runway elevation 3337 ft Runway displaced threshold 670 ft Runway heading 19
Runway 20 Runway length 6112 ft Runway width 148 ft
Runway elevation 3268 ft Runway displaced threshold 0 ft Runway heading 199

 AIRPORT FREQUENCIES
Type APP Name TONCONTIN Frequency 119.1 MHZ
Type ATIS Name ATIS Frequency 112.3 MHZ
Type GND Name GND Frequency 121.9 MHZ
Type RDO Name TEGUCIGALP Frequency 126.7 MHZ
Type TWR Name TWR Frequency 118.7 MHZ

 AIRPORT NEAR NAVIGATION AIDS
Type NDB Name Picacho Frequency 334 KHZ
Type VOR-DME Name Toncontin Frequency 112300 KHZ
Type NDB Name Toncontin Frequency 405 KHZ